createdAt,value
2019-04-29T00:00:57.340Z,11.13
2019-04-29T00:03:31.779Z,10.53
2019-04-29T00:08:39.144Z,11.75
2019-04-29T00:11:13.791Z,11.20
2019-04-29T00:13:48.652Z,8.83
2019-04-29T00:16:43.454Z,13.33
2019-04-29T00:19:36.482Z,11.95
2019-04-29T00:22:10.930Z,8.73
2019-04-29T00:24:45.274Z,9.77
2019-04-29T00:27:19.694Z,9.77
2019-04-29T00:29:54.074Z,7.63
2019-04-29T00:32:28.327Z,10.13
2019-04-29T00:35:02.731Z,12.90
2019-04-29T00:41:01.630Z,11.47
2019-04-29T00:43:44.287Z,10.90
2019-04-29T00:46:18.936Z,11.93
2019-04-29T00:48:53.188Z,7.30
2019-04-29T00:51:27.637Z,6.70
2019-04-29T00:54:07.127Z,13.35
2019-04-29T00:56:41.877Z,7.25
2019-04-29T01:01:48.948Z,9.47
2019-04-29T01:06:55.940Z,15.10
2019-04-29T01:09:30.787Z,15.88
2019-04-29T01:12:05.104Z,13.67
2019-04-29T01:14:40.952Z,9.00
2019-04-29T01:17:15.284Z,9.43
2019-04-29T01:19:49.721Z,9.90
2019-04-29T01:22:24.286Z,10.73
2019-04-29T01:24:58.707Z,10.00
2019-04-29T01:27:39.278Z,13.57
2019-04-29T01:31:15.571Z,16.20
2019-04-29T01:33:51.548Z,8.20
2019-04-29T01:36:30.483Z,8.47
2019-04-29T01:39:07.475Z,11.40
2019-04-29T01:42:04.359Z,10.97
2019-04-29T01:44:41.274Z,14.78
2019-04-29T01:47:15.661Z,9.57
2019-04-29T01:49:49.917Z,9.93
2019-04-29T01:54:56.928Z,11.12
2019-04-29T01:57:31.278Z,11.17
2019-04-29T02:00:06.276Z,11.00
2019-04-29T02:02:40.672Z,8.33
2019-04-29T02:08:03.683Z,13.20
2019-04-29T02:10:42.135Z,11.10
2019-04-29T02:13:16.659Z,11.90
2019-04-29T02:15:50.939Z,9.63
2019-04-29T02:18:25.275Z,12.73
2019-04-29T02:20:59.669Z,12.07
2019-04-29T02:23:39.307Z,11.48
2019-04-29T02:26:13.662Z,11.70
2019-04-29T02:28:47.940Z,10.83
2019-04-29T02:31:42.273Z,14.30
2019-04-29T02:34:16.698Z,14.57
2019-04-29T02:36:50.944Z,8.33
2019-04-29T02:42:27.338Z,9.13
2019-04-29T02:45:05.946Z,49.90
2019-04-29T02:50:13.681Z,20.30
2019-04-29T02:52:48.069Z,13.13
2019-04-29T02:55:43.279Z,11.57
2019-04-29T02:58:29.822Z,13.83
2019-04-29T03:04:13.342Z,11.57
2019-04-29T03:06:47.753Z,14.80
2019-04-29T03:09:22.072Z,11.97
2019-04-29T03:11:56.647Z,12.35
2019-04-29T03:14:31.133Z,15.78
2019-04-29T03:17:06.697Z,16.13
2019-04-29T03:19:59.624Z,15.90
2019-04-29T03:22:34.576Z,13.27
2019-04-29T03:25:09.270Z,17.20
2019-04-29T03:27:43.683Z,13.20
2019-04-29T03:30:18.283Z,15.63
2019-04-29T03:32:52.738Z,19.67
2019-04-29T03:35:27.109Z,15.85
2019-04-29T03:38:01.683Z,17.80
2019-04-29T03:40:36.118Z,24.00
2019-04-29T03:43:10.638Z,15.43
2019-04-29T03:45:45.076Z,17.25
2019-04-29T03:48:19.676Z,17.07
2019-04-29T03:50:54.114Z,23.10
2019-04-29T03:53:28.829Z,17.83
2019-04-29T03:58:35.847Z,18.30
2019-04-29T04:01:33.555Z,17.52
2019-04-29T04:04:21.296Z,15.48
2019-04-29T04:07:04.185Z,15.08
2019-04-29T04:09:38.246Z,19.65
2019-04-29T04:12:12.653Z,17.10
2019-04-29T04:14:46.945Z,18.85
2019-04-29T04:17:33.275Z,16.27
2019-04-29T04:20:08.282Z,16.55
2019-04-29T04:22:49.124Z,15.10
2019-04-29T04:25:23.680Z,16.97
2019-04-29T04:27:57.950Z,16.20
2019-04-29T04:30:32.621Z,14.17
2019-04-29T04:33:06.914Z,14.70
2019-04-29T04:38:13.963Z,13.17
2019-04-29T04:41:04.703Z,12.93
2019-04-29T04:43:38.947Z,12.50
2019-04-29T04:46:13.326Z,11.93
2019-04-29T04:48:47.795Z,12.00
2019-04-29T04:53:54.887Z,10.98
2019-04-29T04:59:01.950Z,12.80
2019-04-29T05:04:09.355Z,12.07
2019-04-29T05:06:44.073Z,13.70
2019-04-29T05:09:18.298Z,13.98
2019-04-29T05:11:52.702Z,10.70
2019-04-29T05:14:26.928Z,11.77
2019-04-29T05:17:01.251Z,10.93
2019-04-29T05:19:35.635Z,15.77
2019-04-29T05:22:10.668Z,14.43
2019-04-29T05:24:46.266Z,17.03
2019-04-29T05:27:20.888Z,10.93
2019-04-29T05:32:28.373Z,11.50
2019-04-29T05:35:05.319Z,15.20
2019-04-29T05:37:48.265Z,10.67
2019-04-29T05:40:39.262Z,9.35
2019-04-29T05:43:16.338Z,10.87
2019-04-29T05:46:28.878Z,11.38
2019-04-29T05:49:07.337Z,11.17
2019-04-29T05:51:57.623Z,11.43
2019-04-29T05:54:31.750Z,9.37
2019-04-29T05:57:06.923Z,9.40
2019-04-29T05:59:43.417Z,9.37
2019-04-29T06:02:17.667Z,11.50
2019-04-29T06:04:53.727Z,12.33
2019-04-29T06:07:28.638Z,9.20
2019-04-29T06:10:03.734Z,9.33
2019-04-29T06:12:38.274Z,11.18
2019-04-29T06:15:12.693Z,8.63
2019-04-29T06:17:46.948Z,11.97
2019-04-29T06:20:22.901Z,9.43
2019-04-29T06:22:57.342Z,13.67
2019-04-29T06:25:31.714Z,10.43
2019-04-29T06:28:06.266Z,9.17
2019-04-29T06:30:44.901Z,9.27
2019-04-29T06:33:17.120Z,8.20
2019-04-29T06:35:51.658Z,7.97
2019-04-29T06:38:26.281Z,10.03
2019-04-29T06:41:00.815Z,9.07
2019-04-29T06:46:08.664Z,8.90
2019-04-29T06:48:42.940Z,8.20
2019-04-29T06:51:18.319Z,11.00
2019-04-29T06:53:53.255Z,11.37
2019-04-29T06:56:27.766Z,8.33
2019-04-29T06:59:02.272Z,8.38
2019-04-29T07:01:38.678Z,9.97
2019-04-29T07:04:13.264Z,9.13
2019-04-29T07:06:57.079Z,9.03
2019-04-29T07:09:23.880Z,10.03
2019-04-29T07:14:38.109Z,11.73
2019-04-29T07:17:09.397Z,11.13
2019-04-29T07:19:44.271Z,14.43
2019-04-29T07:22:20.930Z,9.83
2019-04-29T07:24:54.942Z,8.30
2019-04-29T07:27:29.318Z,9.13
2019-04-29T07:30:06.529Z,8.37
2019-04-29T07:32:41.943Z,9.47
2019-04-29T07:35:16.267Z,13.65
2019-04-29T07:37:51.252Z,11.95
2019-04-29T07:40:25.882Z,13.83
2019-04-29T07:46:03.756Z,8.73
2019-04-29T07:51:09.660Z,14.38
2019-04-29T07:53:45.521Z,9.80
2019-04-29T07:56:20.124Z,12.20
2019-04-29T07:58:54.651Z,14.00
2019-04-29T08:01:29.098Z,10.80
2019-04-29T08:04:03.314Z,11.13
2019-04-29T08:06:38.171Z,13.75
2019-04-29T08:09:13.885Z,13.20
2019-04-29T08:16:55.272Z,16.57
2019-04-29T08:19:31.488Z,14.35
2019-04-29T08:22:05.783Z,12.63
2019-04-29T08:24:39.948Z,11.67
2019-04-29T08:29:47.090Z,14.23
2019-04-29T08:32:21.680Z,12.37
2019-04-29T08:34:57.926Z,14.63
2019-04-29T08:37:32.276Z,17.35
2019-04-29T08:40:15.871Z,16.43
2019-04-29T08:42:47.313Z,11.48
2019-04-29T08:45:38.962Z,14.63
2019-04-29T08:48:13.277Z,14.10
2019-04-29T08:50:49.269Z,14.33
2019-04-29T08:53:23.645Z,14.47
2019-04-29T08:55:59.330Z,13.48
2019-04-29T08:58:33.865Z,12.63
2019-04-29T09:03:41.213Z,14.68
2019-04-29T09:06:15.685Z,11.95
2019-04-29T09:08:55.356Z,14.83
2019-04-29T09:11:25.946Z,12.98
2019-04-29T09:14:00.123Z,17.25
2019-04-29T09:16:35.302Z,14.90
2019-04-29T09:19:09.737Z,12.13
2019-04-29T09:21:45.623Z,17.25
2019-04-29T09:24:19.938Z,14.47
2019-04-29T09:32:10.944Z,12.23
2019-04-29T09:34:45.267Z,12.73
2019-04-29T09:37:22.930Z,10.97
2019-04-29T09:39:55.960Z,12.33
2019-04-29T09:45:33.290Z,11.15
2019-04-29T09:48:08.080Z,10.17
2019-04-29T09:50:42.630Z,10.47
2019-04-29T09:53:17.328Z,10.30
2019-04-29T09:55:51.923Z,12.50
2019-04-29T09:58:26.325Z,10.93
2019-04-29T10:01:22.362Z,11.43
2019-04-29T10:04:20.113Z,10.93
2019-04-29T10:06:57.262Z,11.28
2019-04-29T10:09:31.737Z,8.90
2019-04-29T10:12:06.318Z,10.27
2019-04-29T10:17:35.947Z,10.28
2019-04-29T10:20:42.421Z,8.90
2019-04-29T10:23:16.946Z,9.38
2019-04-29T10:25:51.278Z,9.10
2019-04-29T10:28:25.892Z,9.30
2019-04-29T10:31:00.295Z,8.47
2019-04-29T10:33:35.872Z,7.70
2019-04-29T10:38:46.121Z,8.33
2019-04-29T10:41:30.938Z,7.93
2019-04-29T10:44:27.304Z,8.13
2019-04-29T10:47:28.516Z,8.93
2019-04-29T10:50:14.962Z,8.70
2019-04-29T10:55:20.559Z,8.50
2019-04-29T10:57:55.582Z,7.42
2019-04-29T11:01:29.204Z,7.87
2019-04-29T11:04:02.865Z,8.23
2019-04-29T11:06:37.509Z,8.70
2019-04-29T11:09:30.582Z,8.20
2019-04-29T11:12:08.862Z,8.30
2019-04-29T11:14:43.627Z,7.43
2019-04-29T11:17:18.279Z,6.62
2019-04-29T11:19:52.865Z,6.97
2019-04-29T11:28:21.508Z,8.20
2019-04-29T11:30:56.257Z,6.70
2019-04-29T11:33:41.731Z,6.93
2019-04-29T11:36:17.134Z,6.50
2019-04-29T11:38:51.325Z,6.53
2019-04-29T11:41:27.567Z,5.53
2019-04-29T11:44:02.276Z,6.60
2019-04-29T11:46:37.125Z,6.13
2019-04-29T11:49:13.280Z,6.40
2019-04-29T11:52:08.240Z,6.03
2019-04-29T11:54:25.896Z,5.53
2019-04-29T11:57:00.408Z,5.40
2019-04-29T12:00:05.764Z,5.73
2019-04-29T12:05:44.781Z,6.67
2019-04-29T12:08:18.464Z,6.40
2019-04-29T12:11:06.669Z,5.93
2019-04-29T12:13:41.395Z,7.10
2019-04-29T12:16:26.924Z,6.80
2019-04-29T12:21:42.315Z,6.97
2019-04-29T12:24:17.273Z,7.33
2019-04-29T12:26:51.896Z,6.83
2019-04-29T12:32:06.328Z,7.87
2019-04-29T12:38:13.946Z,8.90
2019-04-29T12:41:00.123Z,7.87
2019-04-29T12:43:54.089Z,7.73
2019-04-29T12:46:57.894Z,6.63
2019-04-29T12:52:05.280Z,6.57
2019-04-29T12:54:42.020Z,7.87
2019-04-29T12:57:18.901Z,7.90
2019-04-29T12:59:54.693Z,9.25
2019-04-29T13:05:38.773Z,7.47
2019-04-29T13:10:57.607Z,8.08
2019-04-29T13:13:32.122Z,6.87
2019-04-29T13:16:37.736Z,7.13
2019-04-29T13:22:01.281Z,6.37
2019-04-29T13:24:38.589Z,7.30
2019-04-29T13:27:16.265Z,6.30
2019-04-29T13:29:48.332Z,6.93
2019-04-29T13:33:22.209Z,5.67
2019-04-29T13:35:05.293Z,6.87
2019-04-29T13:37:37.360Z,5.73
2019-04-29T13:40:12.278Z,5.93
2019-04-29T13:42:49.227Z,6.30
2019-04-29T13:45:29.277Z,6.20
2019-04-29T13:48:11.394Z,6.13
2019-04-29T13:50:50.662Z,5.73
2019-04-29T13:53:25.337Z,5.77
2019-04-29T13:56:11.157Z,6.00
2019-04-29T13:58:36.287Z,6.30
2019-04-29T14:01:57.827Z,5.63
2019-04-29T14:04:26.217Z,5.50
2019-04-29T14:07:00.706Z,5.27
2019-04-29T14:09:38.786Z,5.37
2019-04-29T14:12:46.351Z,4.80
2019-04-29T14:17:26.596Z,4.90
2019-04-29T14:19:57.150Z,28.57
2019-04-29T14:22:32.255Z,5.40
2019-04-29T14:25:06.862Z,5.40
2019-04-29T14:27:41.269Z,4.33
2019-04-29T14:30:20.930Z,4.70
2019-04-29T14:35:50.490Z,5.53
2019-04-29T14:38:25.037Z,5.03
2019-04-29T14:40:59.601Z,4.87
2019-04-29T14:43:55.195Z,4.40
2019-04-29T14:47:01.317Z,4.07
2019-04-29T14:49:40.995Z,3.77
2019-04-29T14:52:15.867Z,3.30
2019-04-29T14:54:50.551Z,4.12
2019-04-29T14:57:26.253Z,14.07
2019-04-29T15:00:00.946Z,23.97
2019-04-29T15:02:35.747Z,5.97
2019-04-29T15:05:12.325Z,3.87
2019-04-29T15:10:19.418Z,3.45
2019-04-29T15:13:11.517Z,4.12
2019-04-29T15:18:45.893Z,4.00
2019-04-29T15:21:44.873Z,6.10
2019-04-29T15:24:19.277Z,4.80
2019-04-29T15:26:53.953Z,4.50
2019-04-29T15:29:28.316Z,5.33
2019-04-29T15:32:02.984Z,4.97
2019-04-29T15:34:40.034Z,4.90
2019-04-29T15:37:13.648Z,5.07
2019-04-29T15:39:47.946Z,5.75
2019-04-29T15:42:22.509Z,4.80
2019-04-29T15:44:57.019Z,5.13
2019-04-29T15:47:31.660Z,5.27
2019-04-29T15:52:40.729Z,5.50
2019-04-29T15:55:15.301Z,7.43
2019-04-29T15:57:51.578Z,6.07
2019-04-29T16:00:27.264Z,6.97
2019-04-29T16:03:03.107Z,8.17
2019-04-29T16:06:19.942Z,7.67
2019-04-29T16:09:06.716Z,10.17
2019-04-29T16:12:20.060Z,10.90
2019-04-29T16:14:54.274Z,13.47
2019-04-29T16:17:31.940Z,14.55
2019-04-29T16:20:04.862Z,19.20
2019-04-29T16:22:39.961Z,15.83
2019-04-29T16:25:14.403Z,15.48
2019-04-29T16:27:53.357Z,18.37
2019-04-29T16:30:26.166Z,17.50
2019-04-29T16:33:01.565Z,17.70
2019-04-29T16:35:36.147Z,19.35
2019-04-29T16:38:13.503Z,17.67
2019-04-29T16:43:43.984Z,29.45
2019-04-29T16:46:23.428Z,19.87
2019-04-29T16:48:58.575Z,46.02
2019-04-29T16:51:32.942Z,39.90
2019-04-29T16:54:12.877Z,26.82
2019-04-29T16:56:44.060Z,19.70
2019-04-29T16:59:19.254Z,23.00
2019-04-29T17:01:54.257Z,24.63
2019-04-29T17:04:28.792Z,24.50
2019-04-29T17:09:49.814Z,24.23
2019-04-29T17:15:04.916Z,24.05
2019-04-29T17:17:36.409Z,24.43
2019-04-29T17:20:11.636Z,27.50
2019-04-29T17:22:46.282Z,26.83
2019-04-29T17:25:21.313Z,27.70
2019-04-29T17:28:24.295Z,33.23
2019-04-29T17:31:26.602Z,29.80
2019-04-29T17:36:50.105Z,33.17
2019-04-29T17:39:25.503Z,30.70
2019-04-29T17:41:59.943Z,26.20
2019-04-29T17:47:57.349Z,34.40
2019-04-29T17:50:46.258Z,173.20
2019-04-29T17:53:26.978Z,99.73
2019-04-29T17:56:24.872Z,34.87
2019-04-29T17:59:06.005Z,26.20
2019-04-29T18:01:59.572Z,34.13
2019-04-29T18:04:57.397Z,30.67
2019-04-29T18:07:40.519Z,28.35
2019-04-29T18:10:29.439Z,29.42
2019-04-29T18:13:04.381Z,27.65
2019-04-29T18:15:57.961Z,94.83
2019-04-29T18:18:26.368Z,75.03
2019-04-29T18:21:17.342Z,37.70
2019-04-29T18:24:06.713Z,37.95
2019-04-29T18:29:22.309Z,32.55
2019-04-29T18:32:00.643Z,32.80
2019-04-29T18:34:37.272Z,39.77
2019-04-29T18:37:09.944Z,28.50
2019-04-29T18:42:17.328Z,28.77
2019-04-29T18:44:59.768Z,45.37
2019-04-29T18:47:34.825Z,33.50
2019-04-29T18:50:05.066Z,31.07
2019-04-29T18:52:39.644Z,32.23
2019-04-29T18:55:14.795Z,27.73
2019-04-29T18:57:48.949Z,28.50
2019-04-29T19:00:25.325Z,34.90
2019-04-29T19:03:01.215Z,33.53
2019-04-29T19:05:48.297Z,35.80
2019-04-29T19:08:24.544Z,38.43
2019-04-29T19:10:59.301Z,33.63
2019-04-29T19:13:36.078Z,34.57
2019-04-29T19:16:12.419Z,39.90
2019-04-29T19:18:47.478Z,35.00
2019-04-29T19:21:23.547Z,38.73
2019-04-29T19:26:32.810Z,40.45
2019-04-29T19:31:46.623Z,44.93
2019-04-29T19:34:20.723Z,42.57
2019-04-29T19:36:59.364Z,42.47
2019-04-29T19:39:34.815Z,47.95
2019-04-29T19:42:08.955Z,44.80
2019-04-29T19:47:16.775Z,56.40
2019-04-29T19:52:31.333Z,48.68
2019-04-29T19:55:03.342Z,53.87
2019-04-29T19:57:42.491Z,56.80
2019-04-29T20:00:17.783Z,62.40
2019-04-29T20:02:51.755Z,61.43
2019-04-29T20:05:39.917Z,65.65
2019-04-29T20:08:37.421Z,71.57
2019-04-29T20:10:52.457Z,81.87
2019-04-29T20:13:31.737Z,65.40
2019-04-29T20:16:39.759Z,58.02
2019-04-29T20:21:55.981Z,63.40
2019-04-29T20:24:31.065Z,60.52
2019-04-29T20:27:06.470Z,56.00
2019-04-29T20:29:41.043Z,58.87
2019-04-29T20:32:16.580Z,53.83
2019-04-29T20:37:36.389Z,46.73
2019-04-29T20:40:11.822Z,65.27
2019-04-29T20:42:49.048Z,43.83
2019-04-29T20:47:58.017Z,54.40
2019-04-29T20:50:32.811Z,44.33
2019-04-29T20:55:50.191Z,43.23
2019-04-29T20:58:31.334Z,45.33
2019-04-29T21:01:03.090Z,42.33
2019-04-29T21:03:40.938Z,46.42
2019-04-29T21:08:51.138Z,50.77
2019-04-29T21:11:29.331Z,56.02
2019-04-29T21:14:15.697Z,67.10
2019-04-29T21:27:05.298Z,57.03
2019-04-29T21:29:39.293Z,46.07
2019-04-29T21:32:15.599Z,52.10
2019-04-29T21:35:00.639Z,52.17
2019-04-29T21:37:46.640Z,47.93
2019-04-29T21:40:31.420Z,52.63
2019-04-29T21:43:19.462Z,56.23
2019-04-29T21:45:55.650Z,56.73
2019-04-29T21:51:06.912Z,43.93
2019-04-29T21:53:40.802Z,46.43
2019-04-29T21:56:16.017Z,46.90
2019-04-29T21:58:50.544Z,44.27
2019-04-29T22:01:25.281Z,40.90
2019-04-29T22:04:02.137Z,35.60
2019-04-29T22:06:35.961Z,44.63
2019-04-29T22:11:46.949Z,45.53
2019-04-29T22:14:22.283Z,40.27
2019-04-29T22:16:57.102Z,37.05
2019-04-29T22:19:31.660Z,38.97
2019-04-29T22:22:06.361Z,49.53
2019-04-29T22:24:40.740Z,38.30
2019-04-29T22:27:16.267Z,44.13
2019-04-29T22:29:50.870Z,33.37
2019-04-29T22:35:01.097Z,37.03
2019-04-29T22:37:38.118Z,37.57
2019-04-29T22:40:10.784Z,35.28
2019-04-29T22:45:40.659Z,39.37
2019-04-29T22:48:19.507Z,34.87
2019-04-29T22:50:51.719Z,34.10
2019-04-29T22:56:00.693Z,32.90
2019-04-29T22:58:39.454Z,34.20
2019-04-29T23:01:12.584Z,31.83
2019-04-29T23:03:47.177Z,39.03
2019-04-29T23:06:22.047Z,30.70
2019-04-29T23:08:56.356Z,30.20
2019-04-29T23:11:34.806Z,30.97
2019-04-29T23:14:10.038Z,30.37
2019-04-29T23:16:45.424Z,30.52
2019-04-29T23:19:19.797Z,32.60
2019-04-29T23:25:09.506Z,33.20
2019-04-29T23:27:43.958Z,30.32
2019-04-29T23:33:07.323Z,26.77
2019-04-29T23:35:41.686Z,30.97
2019-04-29T23:38:16.301Z,27.00
2019-04-29T23:40:54.489Z,31.07
2019-04-29T23:43:28.385Z,31.35
2019-04-29T23:46:04.853Z,28.10
2019-04-29T23:48:39.883Z,17.73
2019-04-29T23:51:15.373Z,18.00
2019-04-29T23:53:49.876Z,18.57
2019-04-29T23:59:05.767Z,11.37
